Time;durP1;ratioP1;P1;durP2;ratioP2;P2;SDS_P1;SDS_P2;PMS_P1;PMS_P2;Temp;Humidity;BMP_temperature;BMP_pressure;BME280_temperature;BME280_humidity;BME280_pressure;Samples;Min_cycle;Max_cycle;Signal;HPM_P1;HPM_P2
2022/11/09 00:00:46;;;;;;;5.17;4.27;;;;;;;10.78;99.61;154127.38;5032631;28;20976;-77
2022/11/09 00:03:32;;;;;;;5.87;4.90;;;;;;;10.77;98.77;154126.13;5024481;28;20443;-77
2022/11/09 00:06:17;;;;;;;5.10;3.87;;;;;;;10.79;96.74;154130.00;5032411;28;20470;-77
2022/11/09 00:09:04;;;;;;;5.27;4.27;;;;;;;10.81;96.88;154136.47;5033268;28;20454;-77
2022/11/09 00:11:50;;;;;;;5.40;4.87;;;;;;;10.83;96.63;154140.31;5031364;28;20795;-77
2022/11/09 00:14:37;;;;;;;6.10;4.63;;;;;;;10.90;97.61;154158.50;5032414;28;20443;-77
2022/11/09 00:17:22;;;;;;;6.00;4.40;;;;;;;10.91;97.12;154162.34;5034742;28;20454;-77
2022/11/09 00:20:09;;;;;;;6.20;5.60;;;;;;;10.92;96.70;154164.97;5022237;28;20872;-77
2022/11/09 00:22:54;;;;;;;5.50;4.33;;;;;;;10.94;98.01;154168.81;5025288;28;20594;-77
2022/11/09 00:25:39;;;;;;;5.40;4.90;;;;;;;10.90;97.14;154159.78;5024393;28;20854;-77
2022/11/09 00:28:25;;;;;;;5.90;5.27;;;;;;;10.91;97.86;154162.34;5032510;28;20455;-77
2022/11/09 00:31:13;;;;;;;4.20;3.80;;;;;;;10.91;98.63;154161.06;5009386;28;20470;-77
2022/11/09 00:33:58;;;;;;;6.00;4.60;;;;;;;10.91;98.60;154161.06;5028789;28;20482;-77
2022/11/09 00:36:43;;;;;;;6.23;4.40;;;;;;;10.90;97.21;154158.50;5033536;28;20577;-77
2022/11/09 00:39:28;;;;;;;4.83;4.33;;;;;;;10.92;96.94;154163.66;5018612;28;20517;-77
2022/11/09 00:42:16;;;;;;;4.40;4.00;;;;;;;10.90;96.95;154159.78;5035238;28;20826;-77
2022/11/09 00:45:01;;;;;;;4.20;3.73;;;;;;;10.92;99.64;154164.97;5013915;28;20593;-77
2022/11/09 00:47:48;;;;;;;4.93;4.53;;;;;;;10.89;98.19;154155.88;5032591;28;20945;-77
2022/11/09 00:50:34;;;;;;;6.53;4.93;;;;;;;10.89;99.22;154155.88;5033831;28;20803;-77
2022/11/09 00:53:20;;;;;;;4.10;3.70;;;;;;;10.90;100.00;154158.50;5014866;28;20451;-77
2022/11/09 00:56:07;;;;;;;7.70;4.47;;;;;;;10.88;100.00;154153.31;5007206;28;20566;-77
2022/11/09 00:58:55;;;;;;;5.00;4.50;;;;;;;10.86;100.00;154149.41;5019670;28;21014;-77
2022/11/09 01:01:40;;;;;;;5.40;4.33;;;;;;;10.86;99.62;154149.41;5018861;28;20455;-77
2022/11/09 01:04:27;;;;;;;4.47;4.03;;;;;;;10.88;100.00;154153.31;5030347;28;20805;-77
2022/11/09 01:07:12;;;;;;;4.23;3.83;;;;;;;10.87;99.60;154152.03;5017610;28;20495;-77
2022/11/09 01:09:57;;;;;;;6.23;4.07;;;;;;;10.87;100.00;154150.72;5022174;28;20432;-77
2022/11/09 01:12:43;;;;;;;5.23;4.70;;;;;;;10.85;99.43;154146.84;5024163;28;20443;-77
2022/11/09 01:15:28;;;;;;;5.40;4.50;;;;;;;10.87;100.00;154152.03;5016977;28;20438;-77
2022/11/09 01:18:15;;;;;;;4.93;4.23;;;;;;;10.86;99.68;154149.41;5034431;28;20403;-77
2022/11/09 01:21:03;;;;;;;4.77;4.23;;;;;;;10.85;99.53;154145.53;5032993;28;20953;-77
2022/11/09 01:23:49;;;;;;;5.90;4.73;;;;;;;10.85;100.00;154146.84;5017489;28;20451;-77
2022/11/09 01:26:35;;;;;;;6.73;5.40;;;;;;;10.84;100.00;154144.25;5033108;28;20818;-77
2022/11/09 01:29:20;;;;;;;5.10;4.60;;;;;;;10.80;100.00;154133.84;5033134;28;20523;-77
2022/11/09 01:32:05;;;;;;;6.30;5.13;;;;;;;10.81;100.00;154136.47;5029302;28;20934;-77
2022/11/09 01:34:51;;;;;;;6.37;5.30;;;;;;;10.76;100.00;154123.53;5033507;28;20439;-77
2022/11/09 01:37:38;;;;;;;5.70;5.10;;;;;;;10.73;100.00;154115.75;5015276;28;20459;-77
2022/11/09 01:40:23;;;;;;;5.90;5.10;;;;;;;10.74;100.00;154117.03;5029955;28;20443;-77
2022/11/09 01:43:15;;;;;;;5.47;4.70;;;;;;;10.72;100.00;154113.13;5031642;28;20941;-77
2022/11/09 01:46:03;;;;;;;6.17;5.33;;;;;;;10.73;100.00;154115.75;5031061;28;20498;-77
2022/11/09 01:48:52;;;;;;;5.20;4.53;;;;;;;10.72;100.00;154113.13;5014090;28;20503;-77
2022/11/09 01:51:40;;;;;;;6.33;5.73;;;;;;;10.75;100.00;154119.66;5029453;28;20459;-77
2022/11/09 01:54:29;;;;;;;5.80;5.20;;;;;;;10.76;100.00;154122.22;5018891;28;20471;-77
2022/11/09 01:57:19;;;;;;;4.40;3.93;;;;;;;10.77;100.00;154126.13;5016420;28;20470;-77
2022/11/09 02:00:09;;;;;;;5.00;4.20;;;;;;;10.77;100.00;154124.81;5010843;28;21031;-77
2022/11/09 02:03:04;;;;;;;9.00;4.03;;;;;;;10.78;100.00;154127.38;5017804;28;20427;-77
2022/11/09 02:05:51;;;;;;;5.07;4.20;;;;;;;10.80;100.00;154132.59;5016839;28;20498;-77
2022/11/09 02:08:37;;;;;;;4.83;4.43;;;;;;;10.81;100.00;154136.47;5016035;28;20833;-77
2022/11/09 02:11:26;;;;;;;5.60;4.17;;;;;;;10.83;100.00;154141.63;5033492;28;20426;-77
2022/11/09 02:14:11;;;;;;;5.60;4.27;;;;;;;10.85;100.00;154145.53;5017228;28;20447;-77
2022/11/09 02:16:57;;;;;;;5.57;4.10;;;;;;;10.86;99.53;154149.41;5013093;28;20486;-77
2022/11/09 02:19:42;;;;;;;4.50;4.10;;;;;;;10.87;99.04;154152.03;5020140;28;20595;-77
2022/11/09 02:22:29;;;;;;;5.03;4.10;;;;;;;10.91;100.00;154162.34;5016543;28;20459;-77
2022/11/09 02:25:15;;;;;;;4.83;4.33;;;;;;;10.89;99.62;154157.19;5003638;28;20455;-77
2022/11/09 02:28:01;;;;;;;5.63;4.60;;;;;;;10.90;99.98;154159.78;5008587;28;20966;-77
2022/11/09 02:30:49;;;;;;;4.23;3.30;;;;;;;10.92;98.95;154164.97;4998442;28;20408;-77
2022/11/09 02:33:43;;;;;;;4.10;3.70;;;;;;;10.94;98.47;154170.13;5000282;28;20548;-77
2022/11/09 02:36:28;;;;;;;4.87;3.73;;;;;;;10.97;99.52;154177.91;5009869;28;20459;-77
2022/11/09 02:39:18;;;;;;;4.23;3.63;;;;;;;10.99;97.76;154183.09;5018133;28;20902;-77
2022/11/09 02:42:07;;;;;;;4.40;3.20;;;;;;;11.00;97.33;154185.69;5031945;28;20462;-77
2022/11/09 02:44:56;;;;;;;4.03;3.57;;;;;;;11.07;96.61;154201.25;5012683;28;20794;-77
2022/11/09 02:47:42;;;;;;;4.20;3.40;;;;;;;11.13;97.48;154216.75;5013800;28;20486;-77
2022/11/09 02:50:27;;;;;;;3.50;3.20;;;;;;;11.21;95.12;154237.47;5028887;28;20937;-77
2022/11/09 02:53:12;;;;;;;3.80;3.00;;;;;;;11.24;96.26;154246.56;5031413;28;20791;-77
2022/11/09 02:56:03;;;;;;;3.03;2.73;;;;;;;11.26;95.47;154251.75;5015579;28;20505;-77
2022/11/09 02:58:48;;;;;;;3.07;2.80;;;;;;;11.26;95.94;154250.44;5017078;28;20459;-77
2022/11/09 03:01:35;;;;;;;3.17;2.87;;;;;;;11.26;95.47;154251.75;5017675;28;20431;-77
2022/11/09 03:04:20;;;;;;;3.80;2.80;;;;;;;11.30;94.47;154260.81;5031360;28;20516;-77
2022/11/09 03:07:06;;;;;;;3.80;2.87;;;;;;;11.34;96.19;154271.16;5014272;28;20483;-77
2022/11/09 03:09:53;;;;;;;3.43;3.10;;;;;;;11.36;96.00;154277.63;5009732;28;20588;-77
2022/11/09 03:12:41;;;;;;;3.10;2.73;;;;;;;11.34;99.65;154271.16;5007495;28;20942;-77
2022/11/09 03:15:30;;;;;;;5.07;3.53;;;;;;;11.32;97.01;154266.00;5017513;28;20420;-77
2022/11/09 03:18:15;;;;;;;3.40;3.03;;;;;;;11.38;95.11;154281.56;5031048;28;20950;-77
2022/11/09 03:21:02;;;;;;;3.20;2.90;;;;;;;11.41;97.08;154289.34;5012844;28;20444;-77
2022/11/09 03:23:47;;;;;;;5.53;3.10;;;;;;;11.41;96.92;154289.34;5003900;28;20450;-77
2022/11/09 03:26:33;;;;;;;4.60;3.07;;;;;;;11.39;99.48;154284.13;5022699;28;20463;-77
2022/11/09 03:29:19;;;;;;;5.67;5.00;;;;;;;11.42;100.00;154291.91;4997980;28;20401;-77
2022/11/09 03:32:05;;;;;;;4.40;3.73;;;;;;;11.39;100.00;154284.13;5013139;28;21080;-77
2022/11/09 03:34:50;;;;;;;4.53;3.83;;;;;;;11.33;100.00;154268.59;5016390;28;21000;-78
2022/11/09 03:37:36;;;;;;;4.30;3.90;;;;;;;11.29;100.00;154259.53;5017520;28;20426;-78
2022/11/09 03:40:23;;;;;;;5.17;3.80;;;;;;;11.26;100.00;154250.44;5016070;28;21045;-78
2022/11/09 03:43:09;;;;;;;4.60;4.20;;;;;;;11.23;100.00;154243.97;5007171;28;20446;-78
2022/11/09 03:45:58;;;;;;;5.80;4.40;;;;;;;11.18;100.00;154229.72;5024465;28;20446;-78
2022/11/09 03:48:43;;;;;;;4.80;3.93;;;;;;;11.13;100.00;154216.75;5030897;28;20490;-78
2022/11/09 03:51:28;;;;;;;6.30;5.00;;;;;;;11.10;100.00;154210.28;5032081;28;20458;-78
2022/11/09 03:54:13;;;;;;;5.20;4.07;;;;;;;11.07;100.00;154201.25;5016600;28;20454;-78
2022/11/09 03:56:58;;;;;;;7.40;4.47;;;;;;;11.05;100.00;154196.03;5031472;28;20517;-78
2022/11/09 03:59:44;;;;;;;6.60;4.67;;;;;;;11.02;100.00;154190.84;5017867;28;20435;-78
2022/11/09 04:02:31;;;;;;;6.40;4.50;;;;;;;10.99;100.00;154183.09;5020772;28;20470;-78
2022/11/09 04:05:16;;;;;;;5.23;4.73;;;;;;;10.97;100.00;154177.91;5029826;28;20960;-78
2022/11/09 04:08:01;;;;;;;5.03;4.27;;;;;;;10.95;100.00;154171.44;5029699;28;20478;-79
2022/11/09 04:10:46;;;;;;;4.93;4.43;;;;;;;10.92;100.00;154164.97;5030773;28;20455;-79
2022/11/09 04:13:31;;;;;;;6.53;4.70;;;;;;;10.90;100.00;154158.50;5032370;28;20431;-78
2022/11/09 04:16:17;;;;;;;4.57;4.10;;;;;;;10.89;100.00;154157.19;5020071;28;21053;-78
2022/11/09 04:19:04;;;;;;;4.70;4.30;;;;;;;10.90;100.00;154159.78;5015773;28;20752;-78
2022/11/09 04:21:49;;;;;;;7.30;4.40;;;;;;;10.87;100.00;154152.03;5028778;28;20459;-78
2022/11/09 04:24:34;;;;;;;4.90;4.50;;;;;;;10.86;100.00;154149.41;5023633;28;20486;-79
2022/11/09 04:27:20;;;;;;;4.43;4.00;;;;;;;10.86;100.00;154149.41;5015957;28;21001;-78
2022/11/09 04:30:06;;;;;;;5.10;4.60;;;;;;;10.86;100.00;154149.41;5026973;28;20803;-78
2022/11/09 04:32:51;;;;;;;7.03;4.63;;;;;;;10.85;100.00;154146.84;5036664;28;20443;-78
2022/11/09 04:35:38;;;;;;;5.43;4.57;;;;;;;10.85;100.00;154146.84;5030689;28;20431;-79
2022/11/09 04:38:23;;;;;;;7.50;5.40;;;;;;;10.81;100.00;154136.47;5028617;28;20452;-79
2022/11/09 04:41:08;;;;;;;7.30;5.70;;;;;;;10.80;100.00;154133.84;5020843;28;20458;-78
2022/11/09 04:43:54;;;;;;;5.90;4.63;;;;;;;10.79;100.00;154131.28;5030265;28;20533;-78
2022/11/09 04:46:39;;;;;;;6.90;5.00;;;;;;;10.78;100.00;154127.38;5034489;28;20467;-78
2022/11/09 04:49:24;;;;;;;6.03;5.00;;;;;;;10.74;100.00;154117.03;5034996;28;20501;-78
2022/11/09 04:52:11;;;;;;;5.27;4.77;;;;;;;10.72;100.00;154111.88;5028822;28;20466;-78
2022/11/09 04:54:56;;;;;;;5.50;5.00;;;;;;;10.76;100.00;154122.22;5029169;28;20478;-78
2022/11/09 04:57:42;;;;;;;6.27;4.87;;;;;;;10.71;100.00;154110.56;5033746;28;21052;-78
2022/11/09 05:00:27;;;;;;;6.50;5.20;;;;;;;10.67;100.00;154098.94;5017221;28;20450;-78
2022/11/09 05:03:12;;;;;;;5.97;4.87;;;;;;;10.66;100.00;154097.63;5033776;28;20451;-77
2022/11/09 05:05:58;;;;;;;6.67;4.60;;;;;;;10.66;100.00;154096.31;5033845;28;20462;-77
2022/11/09 05:08:45;;;;;;;4.90;4.43;;;;;;;10.70;100.00;154106.66;5003126;28;21018;-77
2022/11/09 05:11:30;;;;;;;5.60;4.60;;;;;;;10.67;100.00;154098.94;5031326;28;20934;-77
2022/11/09 05:14:16;;;;;;;7.70;4.43;;;;;;;10.73;100.00;154114.44;5019429;28;20412;-77
2022/11/09 05:17:01;;;;;;;5.67;4.27;;;;;;;10.72;100.00;154113.13;5026838;28;20938;-78
2022/11/09 05:19:47;;;;;;;5.07;4.53;;;;;;;10.66;100.00;154097.63;5023373;28;20450;-77
2022/11/09 05:25:37;;;;;;;5.50;4.63;;;;;;;10.68;100.00;154101.50;5012208;28;20504;-78
2022/11/09 05:28:22;;;;;;;4.70;4.40;;;;;;;10.68;100.00;154102.78;5020151;28;20470;-78
2022/11/09 05:31:07;;;;;;;5.70;5.17;;;;;;;10.72;100.00;154113.13;5034729;28;20431;-78
2022/11/09 05:33:53;;;;;;;6.40;5.53;;;;;;;10.78;100.00;154128.69;5033233;28;20942;-78
2022/11/09 05:36:38;;;;;;;6.37;5.73;;;;;;;10.72;100.00;154113.13;5032787;28;20439;-78
2022/11/09 05:39:24;;;;;;;6.33;5.00;;;;;;;10.67;100.00;154098.94;5031522;28;20486;-78
2022/11/09 05:42:10;;;;;;;5.60;5.10;;;;;;;10.65;100.00;154095.03;5031543;28;20466;-78
2022/11/09 05:44:56;;;;;;;5.30;4.80;;;;;;;10.65;100.00;154095.03;5031691;28;20957;-78
2022/11/09 05:47:42;;;;;;;5.50;5.00;;;;;;;10.57;100.00;154074.31;5032109;28;20471;-78
2022/11/09 05:50:28;;;;;;;5.93;5.00;;;;;;;10.54;100.00;154065.28;5033302;28;20534;-78
2022/11/09 05:53:28;;;;;;;6.70;5.20;;;;;;;10.55;100.00;154069.13;5033015;28;20469;-77
2022/11/09 05:56:14;;;;;;;6.20;5.20;;;;;;;10.53;100.00;154063.97;5023338;28;20454;-77
2022/11/09 05:59:00;;;;;;;6.43;5.20;;;;;;;10.51;100.00;154057.50;5027043;28;20423;-75
2022/11/09 06:01:46;;;;;;;6.10;5.27;;;;;;;10.51;100.00;154058.75;5027801;28;20471;-78
2022/11/09 06:04:31;;;;;;;6.67;5.40;;;;;;;10.49;100.00;154053.59;5029245;28;20456;-78
2022/11/09 06:07:16;;;;;;;10.00;5.63;;;;;;;10.48;100.00;154049.72;5013791;28;20554;-77
2022/11/09 06:10:01;;;;;;;6.03;5.50;;;;;;;10.46;100.00;154045.81;5014133;28;20416;-77
2022/11/09 06:12:50;;;;;;;5.20;4.67;;;;;;;10.42;100.00;154035.47;5013892;28;20455;-77
2022/11/09 06:15:37;;;;;;;6.77;5.23;;;;;;;10.42;100.00;154035.47;5023191;28;20874;-77
2022/11/09 06:18:23;;;;;;;6.67;5.40;;;;;;;10.41;100.00;154032.88;5020846;28;20937;-78
2022/11/09 06:21:08;;;;;;;6.30;5.70;;;;;;;10.40;100.00;154030.31;5014572;28;20428;-78
2022/11/09 06:23:53;;;;;;;7.30;6.03;;;;;;;10.43;100.00;154036.78;5029698;28;20514;-77
2022/11/09 06:26:38;;;;;;;7.53;5.80;;;;;;;10.40;100.00;154030.31;5027910;28;20450;-78
2022/11/09 06:29:24;;;;;;;7.10;6.40;;;;;;;10.42;100.00;154034.16;5033350;28;20782;-78
2022/11/09 06:32:10;;;;;;;6.13;5.53;;;;;;;10.42;100.00;154035.47;5031051;28;20456;-77
2022/11/09 06:34:56;;;;;;;6.53;4.90;;;;;;;10.44;100.00;154040.63;5030531;28;20794;-77
2022/11/09 06:37:41;;;;;;;6.40;5.80;;;;;;;10.46;100.00;154044.56;5031628;28;20475;-77
2022/11/09 06:40:27;;;;;;;5.80;5.20;;;;;;;10.46;100.00;154045.81;5031209;28;20454;-77
2022/11/09 06:43:12;;;;;;;7.10;5.53;;;;;;;10.47;100.00;154048.41;5032308;28;20960;-77
2022/11/09 06:45:59;;;;;;;5.70;5.10;;;;;;;10.49;100.00;154053.59;5013151;28;20420;-77
2022/11/09 06:48:46;;;;;;;6.47;5.80;;;;;;;10.48;100.00;154049.72;5013399;28;20458;-77
2022/11/09 06:51:31;;;;;;;5.90;5.30;;;;;;;10.48;100.00;154051.03;5030344;28;20474;-78
2022/11/09 06:54:16;;;;;;;7.90;5.63;;;;;;;10.48;100.00;154049.72;5035243;28;20423;-77
2022/11/09 06:57:02;;;;;;;6.17;5.57;;;;;;;10.50;100.00;154056.19;5031340;28;20470;-78
2022/11/09 06:59:47;;;;;;;7.27;4.80;;;;;;;10.52;100.00;154060.06;5030529;28;20443;-78
2022/11/09 07:02:33;;;;;;;6.40;5.80;;;;;;;10.51;100.00;154058.75;5017422;28;20431;-77
2022/11/09 07:05:20;;;;;;;6.53;5.77;;;;;;;10.52;100.00;154061.34;5030809;28;20481;-78
2022/11/09 07:08:05;;;;;;;6.00;5.40;;;;;;;10.52;100.00;154061.34;5009527;28;20977;-78
2022/11/09 07:10:51;;;;;;;6.47;5.87;;;;;;;10.54;100.00;154066.53;5031566;28;20443;-78
2022/11/09 07:13:36;;;;;;;6.30;5.07;;;;;;;10.54;100.00;154066.53;5021246;28;20587;-78
2022/11/09 07:16:22;;;;;;;7.77;6.40;;;;;;;10.57;100.00;154073.00;5019965;28;20799;-78
2022/11/09 07:19:08;;;;;;;5.93;5.33;;;;;;;10.59;100.00;154078.22;5017819;28;20423;-78
2022/11/09 07:21:54;;;;;;;6.73;5.87;;;;;;;10.61;100.00;154083.38;5013674;28;20441;-78
2022/11/09 07:24:40;;;;;;;7.17;5.50;;;;;;;10.61;100.00;154084.69;5029417;28;20537;-78
2022/11/09 07:27:25;;;;;;;5.60;4.63;;;;;;;10.63;100.00;154089.84;5029653;28;20991;-78
2022/11/09 07:30:11;;;;;;;5.20;4.70;;;;;;;10.75;100.00;154120.91;5033354;28;20407;-78
2022/11/09 07:32:58;;;;;;;5.20;3.97;;;;;;;10.77;100.00;154124.81;5032564;28;20944;-78
2022/11/09 07:35:44;;;;;;;4.20;3.30;;;;;;;10.82;100.00;154139.06;5025648;28;20466;-78
2022/11/09 07:38:31;;;;;;;3.10;2.80;;;;;;;10.80;100.00;154132.59;5018503;28;20407;-78
2022/11/09 07:41:16;;;;;;;5.23;2.50;;;;;;;10.80;100.00;154133.84;5024644;28;20928;-78
2022/11/09 07:44:01;;;;;;;3.30;2.33;;;;;;;10.83;100.00;154141.63;5018778;28;20458;-78
2022/11/09 07:46:48;;;;;;;3.63;2.83;;;;;;;10.87;100.00;154150.72;5023916;28;20463;-78
2022/11/09 07:49:34;;;;;;;3.27;2.97;;;;;;;10.91;100.00;154162.34;5026062;28;20493;-78
2022/11/09 07:52:19;;;;;;;4.87;3.93;;;;;;;10.92;100.00;154164.97;5031792;28;20450;-88
2022/11/09 07:55:08;;;;;;;6.20;5.20;;;;;;;10.96;100.00;154175.31;5029227;28;20447;-88
2022/11/09 07:57:56;;;;;;;8.47;6.70;;;;;;;11.00;100.00;154185.69;5032263;28;20447;-87
2022/11/09 08:00:43;;;;;;;7.07;5.60;;;;;;;11.04;100.00;154193.47;5027154;28;20525;-87
2022/11/09 08:03:28;;;;;;;4.90;3.90;;;;;;;11.07;100.00;154201.25;5033859;28;20562;-88
2022/11/09 08:06:14;;;;;;;4.40;3.30;;;;;;;11.11;100.00;154211.59;5037028;28;20545;-88
2022/11/09 08:08:59;;;;;;;5.30;4.67;;;;;;;11.13;100.00;154218.06;5032683;28;20554;-88
2022/11/09 08:11:46;;;;;;;4.63;3.63;;;;;;;11.14;100.00;154219.38;5031719;28;20459;-88
2022/11/09 08:14:32;;;;;;;4.63;3.40;;;;;;;11.14;100.00;154219.38;5003138;28;20440;-78
2022/11/09 08:17:17;;;;;;;5.10;3.93;;;;;;;11.14;100.00;154220.66;5025662;28;21158;-78
2022/11/09 08:20:03;;;;;;;7.40;4.30;;;;;;;11.16;100.00;154224.53;5032039;28;20455;-78
2022/11/09 08:22:48;;;;;;;6.57;4.80;;;;;;;11.18;100.00;154231.00;5035196;28;20477;-78
2022/11/09 08:25:34;;;;;;;4.80;4.30;;;;;;;11.20;100.00;154234.94;5032163;28;20467;-78
2022/11/09 08:28:21;;;;;;;5.10;4.30;;;;;;;11.18;100.00;154231.00;5033811;28;20909;-78
2022/11/09 08:31:07;;;;;;;4.50;4.10;;;;;;;11.19;100.00;154232.31;5024395;28;20447;-77
2022/11/09 08:33:53;;;;;;;4.57;4.13;;;;;;;11.24;100.00;154245.25;5017600;28;20534;-78
2022/11/09 08:36:38;;;;;;;4.63;3.80;;;;;;;11.30;100.00;154260.81;5011360;28;20458;-78
2022/11/09 08:39:24;;;;;;;4.67;4.17;;;;;;;11.29;100.00;154258.22;5029753;28;20442;-78
2022/11/09 08:42:09;;;;;;;4.80;4.10;;;;;;;11.30;100.00;154262.13;5031601;28;20590;-78
2022/11/09 08:44:55;;;;;;;4.70;4.30;;;;;;;11.38;100.00;154281.56;5035561;28;20459;-78
2022/11/09 08:47:41;;;;;;;5.03;4.53;;;;;;;11.37;100.00;154280.25;5031301;28;20564;-78
2022/11/09 08:50:27;;;;;;;4.93;4.43;;;;;;;11.43;100.00;154294.50;5031978;28;20812;-78
2022/11/09 08:53:12;;;;;;;5.57;4.97;;;;;;;11.41;100.00;154289.34;5035564;28;20406;-78
2022/11/09 08:55:58;;;;;;;9.00;4.37;;;;;;;11.42;100.00;154293.19;5034619;28;20501;-78
2022/11/09 08:58:44;;;;;;;5.33;3.97;;;;;;;11.51;100.00;154316.53;5036253;28;20440;-79
2022/11/09 09:01:31;;;;;;;5.00;4.37;;;;;;;11.49;100.00;154311.31;5035427;28;20585;-78
2022/11/09 09:04:17;;;;;;;8.97;5.07;;;;;;;11.49;100.00;154310.06;5033972;28;20880;-78
2022/11/09 09:07:02;;;;;;;4.23;3.70;;;;;;;11.57;100.00;154330.75;5024298;28;20490;-78
2022/11/09 09:09:47;;;;;;;4.07;3.67;;;;;;;11.61;100.00;154342.44;5022716;28;20448;-78
2022/11/09 09:12:33;;;;;;;5.10;3.70;;;;;;;11.66;100.00;154354.09;5032386;28;20443;-78
2022/11/09 09:15:18;;;;;;;6.20;3.33;;;;;;;11.73;100.00;154372.28;5030958;28;20966;-78
2022/11/09 09:18:05;;;;;;;3.30;3.00;;;;;;;11.72;100.00;154368.41;5032326;28;20427;-78
2022/11/09 09:20:51;;;;;;;2.90;2.50;;;;;;;11.78;100.00;154383.97;5029794;28;20463;-78
2022/11/09 09:23:36;;;;;;;2.80;2.53;;;;;;;11.72;100.00;154369.72;5022190;28;21214;-78
2022/11/09 09:26:22;;;;;;;3.50;3.10;;;;;;;11.74;100.00;154374.88;5033035;28;20459;-78
2022/11/09 09:29:07;;;;;;;3.30;3.00;;;;;;;11.77;100.00;154382.66;5018502;28;20852;-78
2022/11/09 09:31:53;;;;;;;3.37;3.07;;;;;;;11.77;100.00;154382.66;5034363;28;20455;-78
2022/11/09 09:34:39;;;;;;;3.20;2.90;;;;;;;11.80;100.00;154390.44;5032279;28;20435;-78
2022/11/09 09:37:25;;;;;;;6.10;3.37;;;;;;;11.83;100.00;154398.22;5019140;28;21008;-78
2022/11/09 09:40:20;;;;;;;3.77;3.47;;;;;;;11.80;100.00;154389.16;5020946;28;20474;-78
2022/11/09 09:43:06;;;;;;;3.13;2.80;;;;;;;11.83;100.00;154396.94;5025051;28;20474;-79
2022/11/09 09:45:53;;;;;;;3.47;3.13;;;;;;;11.87;100.00;154408.56;5035046;28;20435;-78
2022/11/09 09:48:41;;;;;;;4.60;3.80;;;;;;;11.87;100.00;154408.56;5032971;28;20470;-78
2022/11/09 09:51:33;;;;;;;5.60;4.10;;;;;;;11.88;100.00;154411.19;5030529;28;20472;-78
2022/11/09 09:54:20;;;;;;;3.77;3.17;;;;;;;11.91;100.00;154418.97;5033742;28;20423;-78
2022/11/09 09:57:13;;;;;;;3.63;3.30;;;;;;;11.94;100.00;154426.72;5031465;28;20439;-78
2022/11/09 10:00:01;;;;;;;3.40;3.10;;;;;;;12.01;100.00;154444.91;5016600;28;20543;-78
2022/11/09 10:02:57;;;;;;;4.63;3.33;;;;;;;12.04;100.00;154452.69;5034243;28;20566;-78
2022/11/09 10:05:47;;;;;;;4.00;3.50;;;;;;;12.10;100.00;154466.88;5034459;28;20435;-78
2022/11/09 10:08:41;;;;;;;3.40;3.10;;;;;;;12.12;100.00;154473.41;5032335;28;20510;-78
2022/11/09 10:11:31;;;;;;;3.00;2.70;;;;;;;12.13;100.00;154475.97;5031039;28;20459;-77
2022/11/09 10:14:41;;;;;;;3.70;3.10;;;;;;;12.19;100.00;154490.25;5032281;28;20428;-78
2022/11/09 10:17:34;;;;;;;3.13;2.77;;;;;;;12.20;100.00;154494.13;5008993;28;20509;-77
2022/11/09 10:20:36;;;;;;;4.70;3.40;;;;;;;12.22;100.00;154498.03;5020255;28;20444;-77
2022/11/09 10:23:49;;;;;;;4.63;3.57;;;;;;;12.29;100.00;154514.84;5014897;28;20434;-78
2022/11/09 10:26:40;;;;;;;3.30;2.97;;;;;;;12.32;100.00;154523.94;5031840;28;20541;-77
2022/11/09 10:29:26;;;;;;;3.00;2.70;;;;;;;12.40;100.00;154543.41;5030436;28;20478;-77
2022/11/09 10:32:14;;;;;;;2.90;2.60;;;;;;;12.46;100.00;154560.28;5024654;28;20415;-77
2022/11/09 10:35:03;;;;;;;4.30;3.20;;;;;;;12.49;100.00;154568.06;5032240;28;20462;-78
2022/11/09 10:37:51;;;;;;;3.73;2.60;;;;;;;12.57;100.00;154587.50;5025780;28;20471;-78
2022/11/09 10:40:42;;;;;;;2.90;2.60;;;;;;;12.61;100.00;154599.16;5022865;28;20793;-78
2022/11/09 10:43:46;;;;;;;2.57;2.37;;;;;;;12.69;100.00;154619.91;5024604;28;20439;-77
2022/11/09 10:47:08;;;;;;;4.60;2.90;;;;;;;12.81;100.00;154649.75;5029972;28;20462;-77
2022/11/09 10:50:22;;;;;;;3.40;2.63;;;;;;;12.86;100.00;154662.72;5014430;28;20571;-77
2022/11/09 10:53:27;;;;;;;3.47;3.13;;;;;;;12.95;100.00;154684.75;5028520;28;20442;-78
2022/11/09 10:56:44;;;;;;;3.20;2.90;;;;;;;12.99;100.00;154696.47;5036269;28;20446;-77
2022/11/09 10:59:50;;;;;;;7.07;6.33;;;;;;;13.01;100.00;154701.63;5030853;28;20505;-77
2022/11/09 11:02:55;;;;;;;3.93;3.63;;;;;;;13.04;100.00;154709.44;5014964;28;20428;-76
2022/11/09 11:06:00;;;;;;;3.20;2.90;;;;;;;13.08;100.00;154719.81;5028434;28;20473;-77
2022/11/09 11:09:15;;;;;;;3.10;2.80;;;;;;;13.17;100.00;154743.22;5030223;28;20510;-87
2022/11/09 11:12:21;;;;;;;3.70;3.40;;;;;;;13.26;100.00;154766.53;5028002;28;20447;-87
2022/11/09 11:15:26;;;;;;;3.83;3.33;;;;;;;13.36;100.00;154792.53;5026589;28;20836;-89
2022/11/09 11:18:34;;;;;;;3.20;2.90;;;;;;;13.38;100.00;154797.69;5016143;28;20412;-88
2022/11/09 11:21:38;;;;;;;3.20;2.70;;;;;;;13.45;100.00;154813.28;5033995;28;20458;-88
2022/11/09 11:24:45;;;;;;;3.77;2.53;;;;;;;13.49;100.00;154823.66;5025998;28;20424;-87
2022/11/09 11:27:54;;;;;;;3.20;2.90;;;;;;;13.57;100.00;154844.41;5032351;28;20847;-88
2022/11/09 11:30:58;;;;;;;5.63;3.57;;;;;;;13.57;100.00;154845.72;5031035;28;20455;-87
2022/11/09 11:34:09;;;;;;;3.97;3.57;;;;;;;13.64;100.00;154862.56;5023394;28;20494;-87
2022/11/09 11:37:28;;;;;;;4.10;3.37;;;;;;;13.66;100.00;154869.06;5017180;28;20474;-87
2022/11/09 11:40:38;;;;;;;5.33;4.83;;;;;;;13.72;100.00;154883.34;5023811;28;20451;-88
2022/11/09 11:43:49;;;;;;;8.67;5.67;;;;;;;13.72;100.00;154883.34;5033217;28;20805;-87
2022/11/09 11:47:00;;;;;;;6.70;5.93;;;;;;;13.74;100.00;154889.81;5032869;28;20490;-87
2022/11/09 11:50:20;;;;;;;4.13;3.60;;;;;;;13.72;100.00;154883.34;5029453;28;20579;-87
2022/11/09 11:53:40;;;;;;;5.13;3.83;;;;;;;13.68;100.00;154872.97;5027077;28;20443;-88
2022/11/09 11:56:47;;;;;;;5.23;4.10;;;;;;;13.68;100.00;154872.97;5024525;28;20563;-88
2022/11/09 12:00:04;;;;;;;4.53;4.07;;;;;;;13.68;100.00;154872.97;5032345;28;20857;-87
2022/11/09 12:03:38;;;;;;;4.33;3.90;;;;;;;13.76;100.00;154895.06;5020841;28;20478;-88
2022/11/09 12:07:05;;;;;;;7.97;5.50;;;;;;;13.73;100.00;154885.94;5030889;28;20471;-87
2022/11/09 12:10:20;;;;;;;4.63;3.13;;;;;;;13.75;100.00;154891.13;5025759;28;20538;-87
2022/11/09 12:13:46;;;;;;;4.50;4.00;;;;;;;13.74;100.00;154889.81;5028550;28;20454;-87
2022/11/09 12:17:01;;;;;;;3.87;3.30;;;;;;;13.75;100.00;154891.13;5030436;28;20446;-87
2022/11/09 12:20:22;;;;;;;4.80;3.67;;;;;;;13.75;100.00;154892.44;5032581;28;20917;-87
2022/11/09 12:23:40;;;;;;;4.40;3.53;;;;;;;13.78;100.00;154898.91;5029318;28;20485;-87
2022/11/09 12:26:58;;;;;;;4.10;3.43;;;;;;;13.83;100.00;154911.91;5032428;28;20439;-88
2022/11/09 12:30:08;;;;;;;5.77;3.60;;;;;;;13.84;100.00;154915.81;5024843;28;20518;-88
2022/11/09 12:33:17;;;;;;;3.37;2.80;;;;;;;13.86;100.00;154921.00;5027724;28;20439;-87
2022/11/09 12:36:25;;;;;;;3.17;2.73;;;;;;;13.88;100.00;154924.88;5017409;28;20474;-87
2022/11/09 12:39:34;;;;;;;3.23;2.93;;;;;;;13.89;100.00;154928.81;5028821;28;20989;-87
2022/11/09 12:42:43;;;;;;;3.03;2.77;;;;;;;13.93;100.00;154937.84;5017887;28;20450;-88
2022/11/09 12:45:48;;;;;;;3.00;2.70;;;;;;;13.98;100.00;154950.81;5025741;28;20777;-87
2022/11/09 12:48:56;;;;;;;5.23;2.73;;;;;;;14.01;100.00;154958.63;5025740;28;20496;-88
2022/11/09 12:52:00;;;;;;;3.60;2.93;;;;;;;14.06;100.00;154971.59;5031373;28;20474;-87
2022/11/09 12:55:05;;;;;;;2.97;2.67;;;;;;;14.07;100.00;154974.22;5024515;28;20823;-87
2022/11/09 12:58:21;;;;;;;3.20;2.90;;;;;;;14.12;100.00;154987.19;5023150;28;20419;-88
2022/11/09 13:01:45;;;;;;;4.00;2.43;;;;;;;14.14;100.00;154992.38;5026974;28;20458;-87
2022/11/09 13:04:56;;;;;;;11.90;2.67;;;;;;;14.18;100.00;155002.78;5032164;28;20428;-87
2022/11/09 13:08:01;;;;;;;3.10;2.03;;;;;;;14.16;100.00;154997.59;5026258;28;20498;-88
2022/11/09 13:11:10;;;;;;;4.30;2.67;;;;;;;14.17;100.00;154998.88;5026358;28;20423;-87